sensor_id;sensor_type;location;lat;lon;timestamp;P1;durP1;ratioP1;P2;durP2;ratioP2
70840;SDS011;58465;51.534;9.934;2023-06-04T00:02:03;6.50;;;2.17;;
70840;SDS011;58465;51.534;9.934;2023-06-04T00:04:28;4.28;;;2.03;;
70840;SDS011;58465;51.534;9.934;2023-06-04T00:06:55;3.35;;;2.10;;
70840;SDS011;58465;51.534;9.934;2023-06-04T00:09:20;3.35;;;1.80;;
70840;SDS011;58465;51.534;9.934;2023-06-04T00:11:45;3.83;;;1.80;;
70840;SDS011;58465;51.534;9.934;2023-06-04T00:14:11;6.75;;;2.15;;
70840;SDS011;58465;51.534;9.934;2023-06-04T00:16:37;9.25;;;4.68;;
70840;SDS011;58465;51.534;9.934;2023-06-04T00:19:03;5.97;;;2.78;;
70840;SDS011;58465;51.534;9.934;2023-06-04T00:21:28;7.72;;;3.28;;
70840;SDS011;58465;51.534;9.934;2023-06-04T00:23:53;6.57;;;3.05;;
70840;SDS011;58465;51.534;9.934;2023-06-04T00:26:19;6.18;;;3.05;;
70840;SDS011;58465;51.534;9.934;2023-06-04T00:28:45;16.45;;;3.13;;
70840;SDS011;58465;51.534;9.934;2023-06-04T00:31:10;5.90;;;2.95;;
70840;SDS011;58465;51.534;9.934;2023-06-04T00:33:37;9.48;;;2.97;;
70840;SDS011;58465;51.534;9.934;2023-06-04T00:36:03;4.53;;;2.60;;
70840;SDS011;58465;51.534;9.934;2023-06-04T00:38:29;11.05;;;3.10;;
70840;SDS011;58465;51.534;9.934;2023-06-04T00:40:54;8.05;;;3.10;;
70840;SDS011;58465;51.534;9.934;2023-06-04T00:43:19;5.82;;;2.85;;
70840;SDS011;58465;51.534;9.934;2023-06-04T00:45:44;7.90;;;2.22;;
70840;SDS011;58465;51.534;9.934;2023-06-04T00:48:10;4.32;;;2.03;;
70840;SDS011;58465;51.534;9.934;2023-06-04T00:50:36;5.00;;;2.03;;
70840;SDS011;58465;51.534;9.934;2023-06-04T00:53:03;7.43;;;1.98;;
70840;SDS011;58465;51.534;9.934;2023-06-04T00:55:29;5.85;;;1.63;;
70840;SDS011;58465;51.534;9.934;2023-06-04T00:57:54;4.90;;;2.10;;
70840;SDS011;58465;51.534;9.934;2023-06-04T01:00:19;7.10;;;2.42;;
70840;SDS011;58465;51.534;9.934;2023-06-04T01:02:45;10.30;;;2.00;;
70840;SDS011;58465;51.534;9.934;2023-06-04T01:07:54;4.15;;;2.30;;
70840;SDS011;58465;51.534;9.934;2023-06-04T01:10:20;4.95;;;2.38;;
70840;SDS011;58465;51.534;9.934;2023-06-04T01:12:47;4.00;;;2.50;;
70840;SDS011;58465;51.534;9.934;2023-06-04T01:15:12;4.60;;;2.03;;
70840;SDS011;58465;51.534;9.934;2023-06-04T01:17:41;6.05;;;2.33;;
70840;SDS011;58465;51.534;9.934;2023-06-04T01:23:13;6.63;;;2.50;;
70840;SDS011;58465;51.534;9.934;2023-06-04T01:25:42;6.82;;;2.17;;
70840;SDS011;58465;51.534;9.934;2023-06-04T01:28:09;4.45;;;2.50;;
70840;SDS011;58465;51.534;9.934;2023-06-04T01:30:37;3.55;;;1.92;;
70840;SDS011;58465;51.534;9.934;2023-06-04T01:33:07;4.07;;;2.00;;
70840;SDS011;58465;51.534;9.934;2023-06-04T01:35:34;3.45;;;1.83;;
70840;SDS011;58465;51.534;9.934;2023-06-04T01:37:59;4.63;;;2.00;;
70840;SDS011;58465;51.534;9.934;2023-06-04T01:40:25;4.63;;;2.20;;
70840;SDS011;58465;51.534;9.934;2023-06-04T01:42:51;3.67;;;2.13;;
70840;SDS011;58465;51.534;9.934;2023-06-04T01:45:16;3.90;;;1.85;;
70840;SDS011;58465;51.534;9.934;2023-06-04T01:47:42;3.97;;;2.00;;
70840;SDS011;58465;51.534;9.934;2023-06-04T01:50:07;3.88;;;1.48;;
70840;SDS011;58465;51.534;9.934;2023-06-04T01:52:34;5.38;;;1.80;;
70840;SDS011;58465;51.534;9.934;2023-06-04T01:55:03;3.70;;;1.80;;
70840;SDS011;58465;51.534;9.934;2023-06-04T01:57:33;5.32;;;1.83;;
70840;SDS011;58465;51.534;9.934;2023-06-04T01:59:59;4.80;;;2.10;;
70840;SDS011;58465;51.534;9.934;2023-06-04T02:02:25;3.00;;;1.90;;
70840;SDS011;58465;51.534;9.934;2023-06-04T02:04:51;3.08;;;1.33;;
70840;SDS011;58465;51.534;9.934;2023-06-04T02:07:18;4.63;;;2.00;;
70840;SDS011;58465;51.534;9.934;2023-06-04T02:09:52;3.83;;;1.50;;
70840;SDS011;58465;51.534;9.934;2023-06-04T02:12:18;3.53;;;1.95;;
70840;SDS011;58465;51.534;9.934;2023-06-04T02:14:43;5.32;;;2.00;;
70840;SDS011;58465;51.534;9.934;2023-06-04T02:17:10;2.58;;;1.50;;
70840;SDS011;58465;51.534;9.934;2023-06-04T02:19:40;3.22;;;1.63;;
70840;SDS011;58465;51.534;9.934;2023-06-04T02:22:12;3.45;;;1.52;;
70840;SDS011;58465;51.534;9.934;2023-06-04T02:24:37;5.82;;;1.80;;
70840;SDS011;58465;51.534;9.934;2023-06-04T02:27:04;6.22;;;1.80;;
70840;SDS011;58465;51.534;9.934;2023-06-04T02:29:30;2.45;;;1.58;;
70840;SDS011;58465;51.534;9.934;2023-06-04T02:31:56;1.98;;;1.45;;
70840;SDS011;58465;51.534;9.934;2023-06-04T02:34:21;3.50;;;1.52;;
70840;SDS011;58465;51.534;9.934;2023-06-04T02:36:46;4.35;;;1.40;;
70840;SDS011;58465;51.534;9.934;2023-06-04T02:39:13;3.55;;;1.58;;
70840;SDS011;58465;51.534;9.934;2023-06-04T02:41:39;2.53;;;1.63;;
70840;SDS011;58465;51.534;9.934;2023-06-04T02:44:04;3.83;;;1.65;;
70840;SDS011;58465;51.534;9.934;2023-06-04T02:46:29;4.57;;;1.52;;
70840;SDS011;58465;51.534;9.934;2023-06-04T02:48:55;2.97;;;1.80;;
70840;SDS011;58465;51.534;9.934;2023-06-04T02:51:20;2.22;;;1.50;;
70840;SDS011;58465;51.534;9.934;2023-06-04T02:53:45;3.92;;;1.90;;
70840;SDS011;58465;51.534;9.934;2023-06-04T02:56:11;2.85;;;1.80;;
70840;SDS011;58465;51.534;9.934;2023-06-04T02:58:37;7.53;;;1.63;;
70840;SDS011;58465;51.534;9.934;2023-06-04T03:01:04;5.32;;;1.73;;
70840;SDS011;58465;51.534;9.934;2023-06-04T03:03:30;3.38;;;1.73;;
70840;SDS011;58465;51.534;9.934;2023-06-04T03:05:56;3.72;;;1.58;;
70840;SDS011;58465;51.534;9.934;2023-06-04T03:08:21;7.75;;;1.88;;
70840;SDS011;58465;51.534;9.934;2023-06-04T03:10:47;5.15;;;1.80;;
70840;SDS011;58465;51.534;9.934;2023-06-04T03:13:12;4.55;;;1.77;;
70840;SDS011;58465;51.534;9.934;2023-06-04T03:15:37;3.97;;;1.80;;
70840;SDS011;58465;51.534;9.934;2023-06-04T03:18:04;4.82;;;1.88;;
70840;SDS011;58465;51.534;9.934;2023-06-04T03:20:30;3.25;;;1.75;;
70840;SDS011;58465;51.534;9.934;2023-06-04T03:22:55;6.72;;;1.60;;
70840;SDS011;58465;51.534;9.934;2023-06-04T03:25:20;6.60;;;1.80;;
70840;SDS011;58465;51.534;9.934;2023-06-04T03:27:45;2.55;;;1.63;;
70840;SDS011;58465;51.534;9.934;2023-06-04T03:30:11;4.72;;;1.98;;
70840;SDS011;58465;51.534;9.934;2023-06-04T03:32:36;4.72;;;1.90;;
70840;SDS011;58465;51.534;9.934;2023-06-04T03:35:02;3.10;;;1.95;;
70840;SDS011;58465;51.534;9.934;2023-06-04T03:37:28;6.63;;;1.98;;
70840;SDS011;58465;51.534;9.934;2023-06-04T03:39:53;3.72;;;1.80;;
70840;SDS011;58465;51.534;9.934;2023-06-04T03:42:18;6.70;;;2.05;;
70840;SDS011;58465;51.534;9.934;2023-06-04T03:44:44;4.57;;;2.22;;
70840;SDS011;58465;51.534;9.934;2023-06-04T03:47:09;3.88;;;1.80;;
70840;SDS011;58465;51.534;9.934;2023-06-04T03:49:35;4.88;;;2.00;;
70840;SDS011;58465;51.534;9.934;2023-06-04T03:52:00;3.55;;;1.70;;
70840;SDS011;58465;51.534;9.934;2023-06-04T03:54:25;3.67;;;2.00;;
70840;SDS011;58465;51.534;9.934;2023-06-04T03:56:50;7.82;;;2.10;;
70840;SDS011;58465;51.534;9.934;2023-06-04T03:59:16;5.93;;;1.75;;
70840;SDS011;58465;51.534;9.934;2023-06-04T04:01:41;5.95;;;1.80;;
70840;SDS011;58465;51.534;9.934;2023-06-04T04:04:07;3.50;;;1.83;;
70840;SDS011;58465;51.534;9.934;2023-06-04T04:06:32;6.72;;;2.10;;
70840;SDS011;58465;51.534;9.934;2023-06-04T04:08:57;3.53;;;1.95;;
70840;SDS011;58465;51.534;9.934;2023-06-04T04:11:23;4.03;;;1.88;;
70840;SDS011;58465;51.534;9.934;2023-06-04T04:13:48;3.03;;;1.80;;
70840;SDS011;58465;51.534;9.934;2023-06-04T04:16:13;3.47;;;1.80;;
70840;SDS011;58465;51.534;9.934;2023-06-04T04:18:41;4.07;;;1.90;;
70840;SDS011;58465;51.534;9.934;2023-06-04T04:21:07;5.25;;;1.65;;
70840;SDS011;58465;51.534;9.934;2023-06-04T04:23:33;4.45;;;2.50;;
70840;SDS011;58465;51.534;9.934;2023-06-04T04:25:58;2.88;;;1.70;;
70840;SDS011;58465;51.534;9.934;2023-06-04T04:28:24;7.45;;;1.90;;
70840;SDS011;58465;51.534;9.934;2023-06-04T04:30:53;6.05;;;1.80;;
70840;SDS011;58465;51.534;9.934;2023-06-04T04:33:18;3.33;;;1.83;;
70840;SDS011;58465;51.534;9.934;2023-06-04T04:35:44;4.10;;;1.52;;
70840;SDS011;58465;51.534;9.934;2023-06-04T04:38:09;4.60;;;1.85;;
70840;SDS011;58465;51.534;9.934;2023-06-04T04:40:35;3.67;;;1.80;;
70840;SDS011;58465;51.534;9.934;2023-06-04T04:43:01;3.55;;;2.00;;
70840;SDS011;58465;51.534;9.934;2023-06-04T04:45:26;2.67;;;1.90;;
70840;SDS011;58465;51.534;9.934;2023-06-04T04:47:51;2.65;;;1.70;;
70840;SDS011;58465;51.534;9.934;2023-06-04T04:50:17;4.88;;;1.80;;
70840;SDS011;58465;51.534;9.934;2023-06-04T04:52:42;3.13;;;1.70;;
70840;SDS011;58465;51.534;9.934;2023-06-04T04:55:08;8.15;;;2.47;;
70840;SDS011;58465;51.534;9.934;2023-06-04T04:57:33;4.80;;;1.77;;
70840;SDS011;58465;51.534;9.934;2023-06-04T04:59:59;4.53;;;1.88;;
70840;SDS011;58465;51.534;9.934;2023-06-04T05:02:24;4.32;;;2.05;;
70840;SDS011;58465;51.534;9.934;2023-06-04T05:04:49;7.10;;;2.40;;
70840;SDS011;58465;51.534;9.934;2023-06-04T05:07:14;3.90;;;2.03;;
70840;SDS011;58465;51.534;9.934;2023-06-04T05:09:40;5.55;;;2.22;;
70840;SDS011;58465;51.534;9.934;2023-06-04T05:12:05;5.03;;;2.10;;
70840;SDS011;58465;51.534;9.934;2023-06-04T05:14:31;3.13;;;1.95;;
70840;SDS011;58465;51.534;9.934;2023-06-04T05:16:57;3.60;;;1.80;;
70840;SDS011;58465;51.534;9.934;2023-06-04T05:19:22;3.20;;;1.98;;
70840;SDS011;58465;51.534;9.934;2023-06-04T05:21:48;3.42;;;1.90;;
70840;SDS011;58465;51.534;9.934;2023-06-04T05:24:14;4.57;;;1.70;;
70840;SDS011;58465;51.534;9.934;2023-06-04T05:26:40;4.35;;;1.83;;
70840;SDS011;58465;51.534;9.934;2023-06-04T05:29:05;5.47;;;2.03;;
70840;SDS011;58465;51.534;9.934;2023-06-04T05:31:32;6.03;;;2.22;;
70840;SDS011;58465;51.534;9.934;2023-06-04T05:33:58;2.60;;;1.60;;
70840;SDS011;58465;51.534;9.934;2023-06-04T05:36:26;4.20;;;1.80;;
70840;SDS011;58465;51.534;9.934;2023-06-04T05:38:52;5.10;;;2.00;;
70840;SDS011;58465;51.534;9.934;2023-06-04T05:41:25;4.70;;;2.03;;
70840;SDS011;58465;51.534;9.934;2023-06-04T05:43:54;5.28;;;1.98;;
70840;SDS011;58465;51.534;9.934;2023-06-04T05:46:19;3.97;;;1.67;;
70840;SDS011;58465;51.534;9.934;2023-06-04T05:48:46;4.75;;;2.20;;
70840;SDS011;58465;51.534;9.934;2023-06-04T05:51:12;4.80;;;2.00;;
70840;SDS011;58465;51.534;9.934;2023-06-04T05:53:39;2.95;;;1.83;;
70840;SDS011;58465;51.534;9.934;2023-06-04T05:56:04;7.03;;;2.35;;
70840;SDS011;58465;51.534;9.934;2023-06-04T05:58:29;3.63;;;2.13;;
70840;SDS011;58465;51.534;9.934;2023-06-04T06:00:55;4.72;;;2.10;;
70840;SDS011;58465;51.534;9.934;2023-06-04T06:03:21;5.65;;;2.00;;
70840;SDS011;58465;51.534;9.934;2023-06-04T06:05:46;2.97;;;1.90;;
70840;SDS011;58465;51.534;9.934;2023-06-04T06:08:11;3.97;;;1.80;;
70840;SDS011;58465;51.534;9.934;2023-06-04T06:10:36;3.90;;;2.00;;
70840;SDS011;58465;51.534;9.934;2023-06-04T06:13:02;5.50;;;2.28;;
70840;SDS011;58465;51.534;9.934;2023-06-04T06:15:27;4.63;;;2.28;;
70840;SDS011;58465;51.534;9.934;2023-06-04T06:17:53;4.10;;;2.20;;
70840;SDS011;58465;51.534;9.934;2023-06-04T06:20:19;5.55;;;1.88;;
70840;SDS011;58465;51.534;9.934;2023-06-04T06:22:44;2.72;;;1.77;;
70840;SDS011;58465;51.534;9.934;2023-06-04T06:25:10;6.85;;;1.88;;
70840;SDS011;58465;51.534;9.934;2023-06-04T06:27:38;4.35;;;2.03;;
70840;SDS011;58465;51.534;9.934;2023-06-04T06:30:03;2.97;;;2.00;;
70840;SDS011;58465;51.534;9.934;2023-06-04T06:32:30;4.50;;;1.75;;
70840;SDS011;58465;51.534;9.934;2023-06-04T06:34:55;4.38;;;1.90;;
70840;SDS011;58465;51.534;9.934;2023-06-04T06:37:20;3.33;;;1.55;;
70840;SDS011;58465;51.534;9.934;2023-06-04T06:39:45;5.18;;;1.70;;
70840;SDS011;58465;51.534;9.934;2023-06-04T06:42:11;3.80;;;1.90;;
70840;SDS011;58465;51.534;9.934;2023-06-04T06:44:36;4.93;;;1.95;;
70840;SDS011;58465;51.534;9.934;2023-06-04T06:47:01;4.15;;;1.73;;
70840;SDS011;58465;51.534;9.934;2023-06-04T06:49:27;3.92;;;2.17;;
70840;SDS011;58465;51.534;9.934;2023-06-04T06:51:52;6.82;;;1.83;;
70840;SDS011;58465;51.534;9.934;2023-06-04T06:54:17;5.60;;;2.00;;
70840;SDS011;58465;51.534;9.934;2023-06-04T06:56:46;4.28;;;1.80;;
70840;SDS011;58465;51.534;9.934;2023-06-04T06:59:13;3.05;;;1.50;;
70840;SDS011;58465;51.534;9.934;2023-06-04T07:01:38;4.60;;;2.17;;
70840;SDS011;58465;51.534;9.934;2023-06-04T07:04:04;2.63;;;1.65;;
70840;SDS011;58465;51.534;9.934;2023-06-04T07:06:29;3.58;;;1.73;;
70840;SDS011;58465;51.534;9.934;2023-06-04T07:08:54;2.67;;;1.63;;
70840;SDS011;58465;51.534;9.934;2023-06-04T07:11:20;2.50;;;1.45;;
70840;SDS011;58465;51.534;9.934;2023-06-04T07:13:46;4.80;;;1.70;;
70840;SDS011;58465;51.534;9.934;2023-06-04T07:16:12;2.70;;;1.63;;
70840;SDS011;58465;51.534;9.934;2023-06-04T07:18:37;3.72;;;1.95;;
70840;SDS011;58465;51.534;9.934;2023-06-04T07:21:02;3.00;;;1.50;;
70840;SDS011;58465;51.534;9.934;2023-06-04T07:23:28;6.32;;;1.70;;
70840;SDS011;58465;51.534;9.934;2023-06-04T07:25:53;5.40;;;1.80;;
70840;SDS011;58465;51.534;9.934;2023-06-04T07:28:18;5.00;;;1.80;;
70840;SDS011;58465;51.534;9.934;2023-06-04T07:30:46;6.10;;;2.10;;
70840;SDS011;58465;51.534;9.934;2023-06-04T07:33:12;3.38;;;1.70;;
70840;SDS011;58465;51.534;9.934;2023-06-04T07:35:37;5.40;;;1.77;;
70840;SDS011;58465;51.534;9.934;2023-06-04T07:38:02;5.90;;;1.90;;
70840;SDS011;58465;51.534;9.934;2023-06-04T07:40:28;2.95;;;1.80;;
70840;SDS011;58465;51.534;9.934;2023-06-04T07:42:53;3.85;;;1.98;;
70840;SDS011;58465;51.534;9.934;2023-06-04T07:45:18;5.72;;;1.75;;
70840;SDS011;58465;51.534;9.934;2023-06-04T07:47:44;4.35;;;1.50;;
70840;SDS011;58465;51.534;9.934;2023-06-04T07:50:09;3.58;;;1.80;;
70840;SDS011;58465;51.534;9.934;2023-06-04T07:52:35;4.97;;;1.52;;
70840;SDS011;58465;51.534;9.934;2023-06-04T07:55:00;4.65;;;1.88;;
70840;SDS011;58465;51.534;9.934;2023-06-04T07:57:26;5.07;;;1.95;;
70840;SDS011;58465;51.534;9.934;2023-06-04T07:59:51;4.45;;;1.40;;
70840;SDS011;58465;51.534;9.934;2023-06-04T08:02:17;3.72;;;1.80;;
70840;SDS011;58465;51.534;9.934;2023-06-04T08:04:42;5.28;;;1.60;;
70840;SDS011;58465;51.534;9.934;2023-06-04T08:07:07;4.22;;;1.60;;
70840;SDS011;58465;51.534;9.934;2023-06-04T08:09:33;2.53;;;1.60;;
70840;SDS011;58465;51.534;9.934;2023-06-04T08:11:59;2.90;;;1.60;;
70840;SDS011;58465;51.534;9.934;2023-06-04T08:14:25;2.53;;;1.40;;
70840;SDS011;58465;51.534;9.934;2023-06-04T08:16:52;6.53;;;1.75;;
70840;SDS011;58465;51.534;9.934;2023-06-04T08:19:18;3.63;;;1.73;;
70840;SDS011;58465;51.534;9.934;2023-06-04T08:21:43;4.45;;;1.52;;
70840;SDS011;58465;51.534;9.934;2023-06-04T08:24:09;4.22;;;1.40;;
70840;SDS011;58465;51.534;9.934;2023-06-04T08:26:35;5.15;;;1.67;;
70840;SDS011;58465;51.534;9.934;2023-06-04T08:29:02;5.22;;;1.60;;
70840;SDS011;58465;51.534;9.934;2023-06-04T08:31:30;2.88;;;1.45;;
70840;SDS011;58465;51.534;9.934;2023-06-04T08:33:56;4.55;;;1.45;;
70840;SDS011;58465;51.534;9.934;2023-06-04T08:36:21;3.40;;;1.40;;
70840;SDS011;58465;51.534;9.934;2023-06-04T08:38:46;3.45;;;1.40;;
70840;SDS011;58465;51.534;9.934;2023-06-04T08:41:16;2.42;;;1.23;;
70840;SDS011;58465;51.534;9.934;2023-06-04T08:43:45;2.35;;;1.10;;
70840;SDS011;58465;51.534;9.934;2023-06-04T08:46:11;3.22;;;1.08;;
70840;SDS011;58465;51.534;9.934;2023-06-04T08:48:37;2.83;;;1.25;;
70840;SDS011;58465;51.534;9.934;2023-06-04T08:51:04;2.97;;;1.30;;
70840;SDS011;58465;51.534;9.934;2023-06-04T08:53:34;2.50;;;1.40;;
70840;SDS011;58465;51.534;9.934;2023-06-04T08:56:01;2.70;;;1.20;;
70840;SDS011;58465;51.534;9.934;2023-06-04T08:58:28;2.45;;;1.25;;
70840;SDS011;58465;51.534;9.934;2023-06-04T09:00:57;6.85;;;1.48;;
70840;SDS011;58465;51.534;9.934;2023-06-04T09:03:22;2.33;;;1.40;;
70840;SDS011;58465;51.534;9.934;2023-06-04T09:05:49;1.98;;;1.30;;
70840;SDS011;58465;51.534;9.934;2023-06-04T09:08:17;2.05;;;1.27;;
70840;SDS011;58465;51.534;9.934;2023-06-04T09:10:44;2.75;;;1.45;;
70840;SDS011;58465;51.534;9.934;2023-06-04T09:13:14;4.65;;;1.60;;
70840;SDS011;58465;51.534;9.934;2023-06-04T09:15:41;2.58;;;1.33;;
70840;SDS011;58465;51.534;9.934;2023-06-04T09:18:06;4.05;;;1.30;;
70840;SDS011;58465;51.534;9.934;2023-06-04T09:20:31;3.20;;;1.40;;
70840;SDS011;58465;51.534;9.934;2023-06-04T09:22:57;3.17;;;1.58;;
70840;SDS011;58465;51.534;9.934;2023-06-04T09:25:24;3.75;;;1.52;;
70840;SDS011;58465;51.534;9.934;2023-06-04T09:27:50;3.63;;;1.58;;
70840;SDS011;58465;51.534;9.934;2023-06-04T09:30:16;2.97;;;1.70;;
70840;SDS011;58465;51.534;9.934;2023-06-04T09:32:42;2.42;;;1.48;;
70840;SDS011;58465;51.534;9.934;2023-06-04T09:35:11;3.70;;;1.70;;
70840;SDS011;58465;51.534;9.934;2023-06-04T09:37:41;4.30;;;1.50;;
70840;SDS011;58465;51.534;9.934;2023-06-04T09:40:08;2.67;;;1.55;;
70840;SDS011;58465;51.534;9.934;2023-06-04T09:45:09;4.30;;;1.73;;
70840;SDS011;58465;51.534;9.934;2023-06-04T09:47:38;5.10;;;1.45;;
70840;SDS011;58465;51.534;9.934;2023-06-04T09:50:05;1.73;;;1.30;;
70840;SDS011;58465;51.534;9.934;2023-06-04T09:52:34;1.80;;;1.38;;
70840;SDS011;58465;51.534;9.934;2023-06-04T09:55:00;4.53;;;1.45;;
70840;SDS011;58465;51.534;9.934;2023-06-04T09:57:25;2.70;;;1.25;;
70840;SDS011;58465;51.534;9.934;2023-06-04T09:59:54;2.10;;;1.30;;
70840;SDS011;58465;51.534;9.934;2023-06-04T10:02:21;3.92;;;1.63;;
70840;SDS011;58465;51.534;9.934;2023-06-04T10:04:48;2.22;;;1.27;;
70840;SDS011;58465;51.534;9.934;2023-06-04T10:07:18;7.90;;;1.60;;
70840;SDS011;58465;51.534;9.934;2023-06-04T10:09:44;1.88;;;1.13;;
70840;SDS011;58465;51.534;9.934;2023-06-04T10:12:11;2.10;;;1.33;;
70840;SDS011;58465;51.534;9.934;2023-06-04T10:17:37;1.75;;;1.23;;
70840;SDS011;58465;51.534;9.934;2023-06-04T10:20:02;4.97;;;1.27;;
70840;SDS011;58465;51.534;9.934;2023-06-04T10:22:33;2.67;;;1.50;;
70840;SDS011;58465;51.534;9.934;2023-06-04T10:24:59;1.92;;;1.10;;
70840;SDS011;58465;51.534;9.934;2023-06-04T10:27:26;2.50;;;1.35;;
70840;SDS011;58465;51.534;9.934;2023-06-04T10:29:53;4.05;;;1.33;;
70840;SDS011;58465;51.534;9.934;2023-06-04T10:32:19;5.95;;;1.80;;
70840;SDS011;58465;51.534;9.934;2023-06-04T10:34:46;2.92;;;1.33;;
70840;SDS011;58465;51.534;9.934;2023-06-04T10:37:21;5.07;;;1.33;;
70840;SDS011;58465;51.534;9.934;2023-06-04T10:39:56;2.10;;;1.38;;
70840;SDS011;58465;51.534;9.934;2023-06-04T10:42:23;2.47;;;1.50;;
70840;SDS011;58465;51.534;9.934;2023-06-04T10:44:53;3.65;;;1.45;;
70840;SDS011;58465;51.534;9.934;2023-06-04T10:47:23;2.72;;;1.60;;
70840;SDS011;58465;51.534;9.934;2023-06-04T10:49:53;2.33;;;1.33;;
70840;SDS011;58465;51.534;9.934;2023-06-04T10:52:20;4.68;;;1.60;;
70840;SDS011;58465;51.534;9.934;2023-06-04T10:54:47;3.22;;;1.35;;
70840;SDS011;58465;51.534;9.934;2023-06-04T10:57:18;2.78;;;1.45;;
70840;SDS011;58465;51.534;9.934;2023-06-04T10:59:57;3.03;;;1.50;;
70840;SDS011;58465;51.534;9.934;2023-06-04T11:02:24;2.13;;;1.20;;
70840;SDS011;58465;51.534;9.934;2023-06-04T11:05:03;2.60;;;1.50;;
70840;SDS011;58465;51.534;9.934;2023-06-04T11:07:42;3.92;;;1.35;;
70840;SDS011;58465;51.534;9.934;2023-06-04T11:10:12;4.53;;;1.20;;
70840;SDS011;58465;51.534;9.934;2023-06-04T11:12:42;3.63;;;1.50;;
70840;SDS011;58465;51.534;9.934;2023-06-04T11:15:09;4.47;;;1.30;;
70840;SDS011;58465;51.534;9.934;2023-06-04T11:17:34;2.00;;;1.42;;
70840;SDS011;58465;51.534;9.934;2023-06-04T11:20:00;5.20;;;1.20;;
70840;SDS011;58465;51.534;9.934;2023-06-04T11:22:25;3.63;;;1.40;;
70840;SDS011;58465;51.534;9.934;2023-06-04T11:24:57;2.38;;;1.50;;
70840;SDS011;58465;51.534;9.934;2023-06-04T11:27:25;4.18;;;1.30;;
70840;SDS011;58465;51.534;9.934;2023-06-04T11:29:51;1.90;;;1.15;;
70840;SDS011;58465;51.534;9.934;2023-06-04T11:32:21;4.90;;;1.33;;
70840;SDS011;58465;51.534;9.934;2023-06-04T11:34:47;3.50;;;1.08;;
70840;SDS011;58465;51.534;9.934;2023-06-04T11:37:13;2.15;;;1.40;;
70840;SDS011;58465;51.534;9.934;2023-06-04T11:39:39;3.90;;;1.50;;
70840;SDS011;58465;51.534;9.934;2023-06-04T11:42:05;2.40;;;1.33;;
70840;SDS011;58465;51.534;9.934;2023-06-04T11:44:32;5.43;;;1.50;;
70840;SDS011;58465;51.534;9.934;2023-06-04T11:46:58;5.90;;;1.10;;
70840;SDS011;58465;51.534;9.934;2023-06-04T11:49:24;2.60;;;1.30;;
70840;SDS011;58465;51.534;9.934;2023-06-04T11:51:53;3.33;;;1.27;;
70840;SDS011;58465;51.534;9.934;2023-06-04T11:54:20;5.68;;;1.23;;
70840;SDS011;58465;51.534;9.934;2023-06-04T11:56:48;1.77;;;1.20;;
70840;SDS011;58465;51.534;9.934;2023-06-04T11:59:15;5.18;;;1.55;;
70840;SDS011;58465;51.534;9.934;2023-06-04T12:01:42;4.78;;;1.40;;
70840;SDS011;58465;51.534;9.934;2023-06-04T12:04:13;1.50;;;1.20;;
70840;SDS011;58465;51.534;9.934;2023-06-04T12:06:52;2.47;;;1.23;;
70840;SDS011;58465;51.534;9.934;2023-06-04T12:09:25;2.70;;;1.20;;
70840;SDS011;58465;51.534;9.934;2023-06-04T12:11:59;1.98;;;1.27;;
70840;SDS011;58465;51.534;9.934;2023-06-04T12:14:55;4.93;;;1.30;;
70840;SDS011;58465;51.534;9.934;2023-06-04T12:17:23;2.13;;;1.42;;
70840;SDS011;58465;51.534;9.934;2023-06-04T12:19:49;2.63;;;1.25;;
70840;SDS011;58465;51.534;9.934;2023-06-04T12:22:15;1.92;;;1.20;;
70840;SDS011;58465;51.534;9.934;2023-06-04T12:24:51;2.22;;;1.42;;
70840;SDS011;58465;51.534;9.934;2023-06-04T12:27:21;1.98;;;1.20;;
70840;SDS011;58465;51.534;9.934;2023-06-04T12:29:58;1.88;;;1.10;;
70840;SDS011;58465;51.534;9.934;2023-06-04T12:32:24;4.13;;;1.30;;
70840;SDS011;58465;51.534;9.934;2023-06-04T12:34:50;2.38;;;1.52;;
70840;SDS011;58465;51.534;9.934;2023-06-04T12:37:15;4.55;;;1.60;;
70840;SDS011;58465;51.534;9.934;2023-06-04T12:39:42;3.30;;;1.50;;
70840;SDS011;58465;51.534;9.934;2023-06-04T12:42:08;2.53;;;1.30;;
70840;SDS011;58465;51.534;9.934;2023-06-04T12:44:39;2.20;;;1.40;;
70840;SDS011;58465;51.534;9.934;2023-06-04T12:47:06;2.10;;;1.20;;
70840;SDS011;58465;51.534;9.934;2023-06-04T12:49:32;3.67;;;1.20;;
70840;SDS011;58465;51.534;9.934;2023-06-04T12:51:57;4.82;;;1.50;;
70840;SDS011;58465;51.534;9.934;2023-06-04T12:54:23;1.98;;;1.30;;
70840;SDS011;58465;51.534;9.934;2023-06-04T12:56:48;1.80;;;1.10;;
70840;SDS011;58465;51.534;9.934;2023-06-04T12:59:14;3.40;;;1.20;;
70840;SDS011;58465;51.534;9.934;2023-06-04T13:01:39;1.42;;;1.20;;
70840;SDS011;58465;51.534;9.934;2023-06-04T13:04:04;1.65;;;1.10;;
70840;SDS011;58465;51.534;9.934;2023-06-04T13:06:30;3.78;;;1.20;;
70840;SDS011;58465;51.534;9.934;2023-06-04T13:08:56;4.03;;;1.40;;
70840;SDS011;58465;51.534;9.934;2023-06-04T13:11:21;3.28;;;1.30;;
70840;SDS011;58465;51.534;9.934;2023-06-04T13:13:47;2.03;;;1.25;;
70840;SDS011;58465;51.534;9.934;2023-06-04T13:16:13;4.80;;;1.27;;
70840;SDS011;58465;51.534;9.934;2023-06-04T13:18:38;3.13;;;1.30;;
70840;SDS011;58465;51.534;9.934;2023-06-04T13:21:04;2.58;;;1.38;;
70840;SDS011;58465;51.534;9.934;2023-06-04T13:23:29;2.17;;;1.30;;
70840;SDS011;58465;51.534;9.934;2023-06-04T13:25:55;3.33;;;1.25;;
70840;SDS011;58465;51.534;9.934;2023-06-04T13:28:22;3.65;;;1.65;;
70840;SDS011;58465;51.534;9.934;2023-06-04T13:30:47;3.00;;;1.45;;
70840;SDS011;58465;51.534;9.934;2023-06-04T13:33:13;1.88;;;1.20;;
70840;SDS011;58465;51.534;9.934;2023-06-04T13:35:38;2.42;;;1.30;;
70840;SDS011;58465;51.534;9.934;2023-06-04T13:38:04;2.08;;;1.20;;
70840;SDS011;58465;51.534;9.934;2023-06-04T13:40:31;5.00;;;1.50;;
70840;SDS011;58465;51.534;9.934;2023-06-04T13:42:58;1.73;;;1.20;;
70840;SDS011;58465;51.534;9.934;2023-06-04T13:45:24;2.80;;;1.40;;
70840;SDS011;58465;51.534;9.934;2023-06-04T13:47:49;1.13;;;1.03;;
70840;SDS011;58465;51.534;9.934;2023-06-04T13:50:15;3.72;;;1.73;;
70840;SDS011;58465;51.534;9.934;2023-06-04T13:52:40;3.95;;;1.40;;
70840;SDS011;58465;51.534;9.934;2023-06-04T13:55:06;2.88;;;1.45;;
70840;SDS011;58465;51.534;9.934;2023-06-04T13:57:31;3.55;;;1.30;;
70840;SDS011;58465;51.534;9.934;2023-06-04T13:59:58;2.38;;;1.23;;
70840;SDS011;58465;51.534;9.934;2023-06-04T14:02:23;1.92;;;1.35;;
70840;SDS011;58465;51.534;9.934;2023-06-04T14:04:49;3.90;;;1.20;;
70840;SDS011;58465;51.534;9.934;2023-06-04T14:07:16;1.98;;;1.30;;
70840;SDS011;58465;51.534;9.934;2023-06-04T14:09:42;1.60;;;1.08;;
70840;SDS011;58465;51.534;9.934;2023-06-04T14:12:07;3.25;;;1.40;;
70840;SDS011;58465;51.534;9.934;2023-06-04T14:14:33;1.98;;;1.23;;
70840;SDS011;58465;51.534;9.934;2023-06-04T14:17:01;3.15;;;1.30;;
70840;SDS011;58465;51.534;9.934;2023-06-04T14:19:30;4.05;;;1.10;;
70840;SDS011;58465;51.534;9.934;2023-06-04T14:21:56;4.28;;;1.17;;
70840;SDS011;58465;51.534;9.934;2023-06-04T14:24:22;1.40;;;1.20;;
70840;SDS011;58465;51.534;9.934;2023-06-04T14:26:47;1.58;;;1.00;;
70840;SDS011;58465;51.534;9.934;2023-06-04T14:29:13;3.83;;;1.47;;
70840;SDS011;58465;51.534;9.934;2023-06-04T14:31:38;2.35;;;1.27;;
70840;SDS011;58465;51.534;9.934;2023-06-04T14:34:04;2.03;;;1.33;;
70840;SDS011;58465;51.534;9.934;2023-06-04T14:36:32;2.67;;;1.20;;
70840;SDS011;58465;51.534;9.934;2023-06-04T14:38:57;2.20;;;1.27;;
70840;SDS011;58465;51.534;9.934;2023-06-04T14:41:23;4.50;;;1.33;;
70840;SDS011;58465;51.534;9.934;2023-06-04T14:43:48;7.07;;;1.50;;
70840;SDS011;58465;51.534;9.934;2023-06-04T14:46:13;4.50;;;1.30;;
70840;SDS011;58465;51.534;9.934;2023-06-04T14:48:39;2.83;;;1.40;;
70840;SDS011;58465;51.534;9.934;2023-06-04T14:51:04;3.78;;;1.58;;
70840;SDS011;58465;51.534;9.934;2023-06-04T14:53:29;3.92;;;1.40;;
70840;SDS011;58465;51.534;9.934;2023-06-04T14:55:55;3.43;;;1.23;;